sensor_id;sensor_type;location;lat;lon;timestamp;P1;durP1;ratioP1;P2;durP2;ratioP2
23594;SDS011;11975;47.674;9.472;2022-10-28T00:01:30;26.75;;;25.10;;
23594;SDS011;11975;47.674;9.472;2022-10-28T00:03:57;25.60;;;24.15;;
23594;SDS011;11975;47.674;9.472;2022-10-28T00:06:26;25.83;;;24.35;;
23594;SDS011;11975;47.674;9.472;2022-10-28T00:08:53;27.42;;;25.88;;
23594;SDS011;11975;47.674;9.472;2022-10-28T00:11:20;28.10;;;26.30;;
23594;SDS011;11975;47.674;9.472;2022-10-28T00:13:48;27.83;;;26.13;;
23594;SDS011;11975;47.674;9.472;2022-10-28T00:16:16;27.65;;;26.08;;
23594;SDS011;11975;47.674;9.472;2022-10-28T00:18:44;28.15;;;26.55;;
23594;SDS011;11975;47.674;9.472;2022-10-28T00:21:12;27.75;;;26.20;;
23594;SDS011;11975;47.674;9.472;2022-10-28T00:23:42;26.70;;;25.17;;
23594;SDS011;11975;47.674;9.472;2022-10-28T00:26:10;26.67;;;25.15;;
23594;SDS011;11975;47.674;9.472;2022-10-28T00:28:41;29.52;;;27.27;;
23594;SDS011;11975;47.674;9.472;2022-10-28T00:31:10;26.95;;;25.40;;
23594;SDS011;11975;47.674;9.472;2022-10-28T00:33:36;27.98;;;26.38;;
23594;SDS011;11975;47.674;9.472;2022-10-28T00:36:06;28.88;;;27.17;;
23594;SDS011;11975;47.674;9.472;2022-10-28T00:38:36;30.10;;;28.20;;
23594;SDS011;11975;47.674;9.472;2022-10-28T00:41:03;29.65;;;27.95;;
23594;SDS011;11975;47.674;9.472;2022-10-28T00:43:33;29.70;;;27.95;;
23594;SDS011;11975;47.674;9.472;2022-10-28T00:46:01;26.67;;;25.17;;
23594;SDS011;11975;47.674;9.472;2022-10-28T00:48:27;28.17;;;26.58;;
23594;SDS011;11975;47.674;9.472;2022-10-28T00:50:53;27.65;;;25.90;;
23594;SDS011;11975;47.674;9.472;2022-10-28T00:53:20;24.75;;;23.35;;
23594;SDS011;11975;47.674;9.472;2022-10-28T00:55:48;26.25;;;24.67;;
23594;SDS011;11975;47.674;9.472;2022-10-28T00:58:14;26.23;;;24.73;;
23594;SDS011;11975;47.674;9.472;2022-10-28T01:00:41;26.58;;;24.98;;
23594;SDS011;11975;47.674;9.472;2022-10-28T01:03:07;28.30;;;26.60;;
23594;SDS011;11975;47.674;9.472;2022-10-28T01:05:35;29.35;;;27.60;;
23594;SDS011;11975;47.674;9.472;2022-10-28T01:08:03;27.48;;;25.90;;
23594;SDS011;11975;47.674;9.472;2022-10-28T01:24:11;26.67;;;25.17;;
23594;SDS011;11975;47.674;9.472;2022-10-28T01:32:28;29.20;;;27.48;;
23594;SDS011;11975;47.674;9.472;2022-10-28T01:37:37;28.83;;;27.20;;
23594;SDS011;11975;47.674;9.472;2022-10-28T01:40:10;28.55;;;26.95;;
23594;SDS011;11975;47.674;9.472;2022-10-28T01:42:47;29.15;;;27.48;;
23594;SDS011;11975;47.674;9.472;2022-10-28T01:45:27;30.13;;;28.38;;
23594;SDS011;11975;47.674;9.472;2022-10-28T01:50:31;29.92;;;28.17;;
23594;SDS011;11975;47.674;9.472;2022-10-28T01:53:03;27.38;;;25.83;;
23594;SDS011;11975;47.674;9.472;2022-10-28T01:55:33;27.40;;;25.83;;
23594;SDS011;11975;47.674;9.472;2022-10-28T01:58:01;28.02;;;26.33;;
23594;SDS011;11975;47.674;9.472;2022-10-28T02:02:54;24.98;;;23.58;;
23594;SDS011;11975;47.674;9.472;2022-10-28T02:08:19;25.10;;;23.67;;
23594;SDS011;11975;47.674;9.472;2022-10-28T02:10:56;25.92;;;24.42;;
23594;SDS011;11975;47.674;9.472;2022-10-28T02:13:49;26.33;;;24.73;;
23594;SDS011;11975;47.674;9.472;2022-10-28T02:16:29;26.05;;;24.55;;
23594;SDS011;11975;47.674;9.472;2022-10-28T02:19:14;25.92;;;24.10;;
23594;SDS011;11975;47.674;9.472;2022-10-28T02:27:27;25.23;;;23.80;;
23594;SDS011;11975;47.674;9.472;2022-10-28T02:29:59;25.23;;;23.80;;
23594;SDS011;11975;47.674;9.472;2022-10-28T02:32:29;24.58;;;23.15;;
23594;SDS011;11975;47.674;9.472;2022-10-28T02:34:58;25.13;;;23.63;;
23594;SDS011;11975;47.674;9.472;2022-10-28T02:37:29;24.88;;;23.48;;
23594;SDS011;11975;47.674;9.472;2022-10-28T02:39:58;24.98;;;23.55;;
23594;SDS011;11975;47.674;9.472;2022-10-28T02:42:27;25.08;;;23.67;;
23594;SDS011;11975;47.674;9.472;2022-10-28T02:44:56;27.05;;;25.42;;
23594;SDS011;11975;47.674;9.472;2022-10-28T02:47:25;26.85;;;25.33;;
23594;SDS011;11975;47.674;9.472;2022-10-28T02:49:55;26.08;;;24.58;;
23594;SDS011;11975;47.674;9.472;2022-10-28T02:52:23;26.75;;;25.20;;
23594;SDS011;11975;47.674;9.472;2022-10-28T02:54:53;26.90;;;25.30;;
23594;SDS011;11975;47.674;9.472;2022-10-28T02:57:24;27.00;;;25.50;;
23594;SDS011;11975;47.674;9.472;2022-10-28T02:59:56;26.13;;;24.63;;
23594;SDS011;11975;47.674;9.472;2022-10-28T03:02:23;25.95;;;24.45;;
23594;SDS011;11975;47.674;9.472;2022-10-28T03:04:49;24.55;;;23.15;;
23594;SDS011;11975;47.674;9.472;2022-10-28T03:07:15;24.13;;;22.80;;
23594;SDS011;11975;47.674;9.472;2022-10-28T03:09:41;25.05;;;23.65;;
23594;SDS011;11975;47.674;9.472;2022-10-28T03:12:07;25.27;;;23.67;;
23594;SDS011;11975;47.674;9.472;2022-10-28T03:14:34;25.92;;;24.42;;
23594;SDS011;11975;47.674;9.472;2022-10-28T03:17:00;26.15;;;24.58;;
23594;SDS011;11975;47.674;9.472;2022-10-28T03:19:26;26.13;;;24.63;;
23594;SDS011;11975;47.674;9.472;2022-10-28T03:21:52;26.23;;;24.63;;
23594;SDS011;11975;47.674;9.472;2022-10-28T03:24:19;25.90;;;24.30;;
23594;SDS011;11975;47.674;9.472;2022-10-28T03:26:45;25.83;;;24.35;;
23594;SDS011;11975;47.674;9.472;2022-10-28T03:29:10;24.48;;;23.08;;
23594;SDS011;11975;47.674;9.472;2022-10-28T03:31:36;25.67;;;23.83;;
23594;SDS011;11975;47.674;9.472;2022-10-28T03:34:02;23.98;;;22.67;;
23594;SDS011;11975;47.674;9.472;2022-10-28T03:36:28;24.92;;;23.52;;
23594;SDS011;11975;47.674;9.472;2022-10-28T03:38:54;26.70;;;25.05;;
23594;SDS011;11975;47.674;9.472;2022-10-28T03:41:20;24.80;;;23.40;;
23594;SDS011;11975;47.674;9.472;2022-10-28T03:43:46;25.25;;;23.75;;
23594;SDS011;11975;47.674;9.472;2022-10-28T03:46:12;25.60;;;24.17;;
23594;SDS011;11975;47.674;9.472;2022-10-28T03:48:38;25.17;;;23.77;;
23594;SDS011;11975;47.674;9.472;2022-10-28T03:51:04;25.80;;;24.30;;
23594;SDS011;11975;47.674;9.472;2022-10-28T03:53:30;26.02;;;24.52;;
23594;SDS011;11975;47.674;9.472;2022-10-28T03:55:57;26.55;;;25.05;;
23594;SDS011;11975;47.674;9.472;2022-10-28T03:58:24;25.13;;;23.70;;
23594;SDS011;11975;47.674;9.472;2022-10-28T04:00:50;26.75;;;24.92;;
23594;SDS011;11975;47.674;9.472;2022-10-28T04:03:17;25.88;;;24.42;;
23594;SDS011;11975;47.674;9.472;2022-10-28T04:05:44;26.88;;;25.38;;
23594;SDS011;11975;47.674;9.472;2022-10-28T04:08:13;28.38;;;25.45;;
23594;SDS011;11975;47.674;9.472;2022-10-28T04:10:39;27.33;;;25.58;;
23594;SDS011;11975;47.674;9.472;2022-10-28T04:13:05;25.70;;;24.27;;
23594;SDS011;11975;47.674;9.472;2022-10-28T04:15:32;26.55;;;25.05;;
23594;SDS011;11975;47.674;9.472;2022-10-28T04:17:58;26.83;;;25.23;;
23594;SDS011;11975;47.674;9.472;2022-10-28T04:20:24;27.58;;;25.88;;
23594;SDS011;11975;47.674;9.472;2022-10-28T04:22:51;26.45;;;24.85;;
23594;SDS011;11975;47.674;9.472;2022-10-28T04:25:17;27.13;;;25.50;;
23594;SDS011;11975;47.674;9.472;2022-10-28T04:27:43;26.67;;;25.10;;
23594;SDS011;11975;47.674;9.472;2022-10-28T04:30:09;28.70;;;26.98;;
23594;SDS011;11975;47.674;9.472;2022-10-28T04:32:37;27.10;;;25.30;;
23594;SDS011;11975;47.674;9.472;2022-10-28T04:35:04;28.08;;;26.38;;
23594;SDS011;11975;47.674;9.472;2022-10-28T04:37:30;28.52;;;25.88;;
23594;SDS011;11975;47.674;9.472;2022-10-28T04:39:56;28.70;;;26.55;;
23594;SDS011;11975;47.674;9.472;2022-10-28T04:42:22;29.50;;;27.50;;
23594;SDS011;11975;47.674;9.472;2022-10-28T04:44:48;29.50;;;27.70;;
23594;SDS011;11975;47.674;9.472;2022-10-28T04:47:15;28.73;;;27.10;;
23594;SDS011;11975;47.674;9.472;2022-10-28T04:49:41;27.88;;;26.27;;
23594;SDS011;11975;47.674;9.472;2022-10-28T04:52:07;28.33;;;26.73;;
23594;SDS011;11975;47.674;9.472;2022-10-28T04:54:33;28.05;;;26.38;;
23594;SDS011;11975;47.674;9.472;2022-10-28T04:56:59;28.05;;;26.45;;
23594;SDS011;11975;47.674;9.472;2022-10-28T04:59:25;29.90;;;28.10;;
23594;SDS011;11975;47.674;9.472;2022-10-28T05:01:51;29.65;;;27.75;;
23594;SDS011;11975;47.674;9.472;2022-10-28T05:04:17;29.58;;;27.88;;
23594;SDS011;11975;47.674;9.472;2022-10-28T05:06:43;29.08;;;27.27;;
23594;SDS011;11975;47.674;9.472;2022-10-28T05:09:09;29.08;;;27.40;;
23594;SDS011;11975;47.674;9.472;2022-10-28T05:11:35;29.63;;;27.83;;
23594;SDS011;11975;47.674;9.472;2022-10-28T05:14:01;30.30;;;28.35;;
23594;SDS011;11975;47.674;9.472;2022-10-28T05:16:27;30.13;;;28.42;;
23594;SDS011;11975;47.674;9.472;2022-10-28T05:18:53;31.40;;;29.50;;
23594;SDS011;11975;47.674;9.472;2022-10-28T05:21:19;29.80;;;28.10;;
23594;SDS011;11975;47.674;9.472;2022-10-28T05:23:45;30.77;;;29.02;;
23594;SDS011;11975;47.674;9.472;2022-10-28T05:26:12;29.80;;;27.90;;
23594;SDS011;11975;47.674;9.472;2022-10-28T05:28:38;28.67;;;27.05;;
23594;SDS011;11975;47.674;9.472;2022-10-28T05:31:04;29.83;;;28.02;;
23594;SDS011;11975;47.674;9.472;2022-10-28T05:33:30;28.73;;;27.02;;
23594;SDS011;11975;47.674;9.472;2022-10-28T05:35:57;28.40;;;26.70;;
23594;SDS011;11975;47.674;9.472;2022-10-28T05:38:24;27.60;;;26.00;;
23594;SDS011;11975;47.674;9.472;2022-10-28T05:40:50;27.88;;;26.27;;
23594;SDS011;11975;47.674;9.472;2022-10-28T05:43:16;29.35;;;26.90;;
23594;SDS011;11975;47.674;9.472;2022-10-28T05:45:42;28.77;;;26.98;;
23594;SDS011;11975;47.674;9.472;2022-10-28T05:48:08;28.40;;;26.80;;
23594;SDS011;11975;47.674;9.472;2022-10-28T05:50:34;29.38;;;27.58;;
23594;SDS011;11975;47.674;9.472;2022-10-28T05:53:00;27.95;;;26.35;;
23594;SDS011;11975;47.674;9.472;2022-10-28T05:55:26;28.88;;;27.08;;
23594;SDS011;11975;47.674;9.472;2022-10-28T05:57:54;29.08;;;27.38;;
23594;SDS011;11975;47.674;9.472;2022-10-28T06:00:21;27.83;;;26.23;;
23594;SDS011;11975;47.674;9.472;2022-10-28T06:02:48;27.85;;;25.95;;
23594;SDS011;11975;47.674;9.472;2022-10-28T06:05:14;26.77;;;25.25;;
23594;SDS011;11975;47.674;9.472;2022-10-28T06:07:41;27.85;;;26.17;;
23594;SDS011;11975;47.674;9.472;2022-10-28T06:10:07;27.00;;;25.50;;
23594;SDS011;11975;47.674;9.472;2022-10-28T06:12:34;26.52;;;25.02;;
23594;SDS011;11975;47.674;9.472;2022-10-28T06:15:01;26.33;;;24.83;;
23594;SDS011;11975;47.674;9.472;2022-10-28T06:17:27;26.52;;;24.92;;
23594;SDS011;11975;47.674;9.472;2022-10-28T06:19:53;26.10;;;24.60;;
23594;SDS011;11975;47.674;9.472;2022-10-28T06:22:19;26.67;;;25.15;;
23594;SDS011;11975;47.674;9.472;2022-10-28T06:24:45;27.73;;;26.10;;
23594;SDS011;11975;47.674;9.472;2022-10-28T06:27:11;27.73;;;26.13;;
23594;SDS011;11975;47.674;9.472;2022-10-28T06:29:37;27.30;;;25.70;;
23594;SDS011;11975;47.674;9.472;2022-10-28T06:32:03;28.27;;;26.38;;
23594;SDS011;11975;47.674;9.472;2022-10-28T06:34:29;28.73;;;27.02;;
23594;SDS011;11975;47.674;9.472;2022-10-28T06:36:55;30.13;;;28.23;;
23594;SDS011;11975;47.674;9.472;2022-10-28T06:39:21;29.75;;;27.55;;
23594;SDS011;11975;47.674;9.472;2022-10-28T06:41:46;28.67;;;27.05;;
23594;SDS011;11975;47.674;9.472;2022-10-28T06:44:12;28.80;;;27.17;;
23594;SDS011;11975;47.674;9.472;2022-10-28T06:46:38;30.58;;;28.77;;
23594;SDS011;11975;47.674;9.472;2022-10-28T06:49:04;28.98;;;27.33;;
23594;SDS011;11975;47.674;9.472;2022-10-28T06:51:30;28.75;;;27.05;;
23594;SDS011;11975;47.674;9.472;2022-10-28T06:53:56;27.85;;;26.15;;
23594;SDS011;11975;47.674;9.472;2022-10-28T06:56:23;27.27;;;25.67;;
23594;SDS011;11975;47.674;9.472;2022-10-28T06:58:49;27.33;;;25.70;;
23594;SDS011;11975;47.674;9.472;2022-10-28T07:01:16;28.17;;;26.50;;
23594;SDS011;11975;47.674;9.472;2022-10-28T07:03:42;28.60;;;26.90;;
23594;SDS011;11975;47.674;9.472;2022-10-28T07:06:08;26.42;;;24.90;;
23594;SDS011;11975;47.674;9.472;2022-10-28T07:08:34;28.58;;;26.67;;
23594;SDS011;11975;47.674;9.472;2022-10-28T07:11:00;28.73;;;27.02;;
23594;SDS011;11975;47.674;9.472;2022-10-28T07:13:27;29.17;;;27.50;;
23594;SDS011;11975;47.674;9.472;2022-10-28T07:15:54;30.33;;;28.52;;
23594;SDS011;11975;47.674;9.472;2022-10-28T07:18:22;29.35;;;27.65;;
23594;SDS011;11975;47.674;9.472;2022-10-28T07:20:49;31.38;;;29.58;;
23594;SDS011;11975;47.674;9.472;2022-10-28T07:23:15;30.67;;;28.92;;
23594;SDS011;11975;47.674;9.472;2022-10-28T07:25:41;32.08;;;29.55;;
23594;SDS011;11975;47.674;9.472;2022-10-28T07:28:07;32.45;;;30.55;;
23594;SDS011;11975;47.674;9.472;2022-10-28T07:30:34;33.03;;;31.13;;
23594;SDS011;11975;47.674;9.472;2022-10-28T07:33:00;29.98;;;28.27;;
23594;SDS011;11975;47.674;9.472;2022-10-28T07:35:29;30.40;;;28.63;;
23594;SDS011;11975;47.674;9.472;2022-10-28T07:37:56;32.33;;;30.42;;
23594;SDS011;11975;47.674;9.472;2022-10-28T07:40:23;32.33;;;30.50;;
23594;SDS011;11975;47.674;9.472;2022-10-28T07:42:49;32.00;;;30.13;;
23594;SDS011;11975;47.674;9.472;2022-10-28T07:45:16;32.10;;;30.20;;
23594;SDS011;11975;47.674;9.472;2022-10-28T07:47:42;32.50;;;30.63;;
23594;SDS011;11975;47.674;9.472;2022-10-28T07:50:10;31.38;;;29.60;;
23594;SDS011;11975;47.674;9.472;2022-10-28T07:52:36;34.38;;;32.30;;
23594;SDS011;11975;47.674;9.472;2022-10-28T07:55:03;33.67;;;31.67;;
23594;SDS011;11975;47.674;9.472;2022-10-28T07:57:30;35.30;;;32.40;;
23594;SDS011;11975;47.674;9.472;2022-10-28T07:59:56;34.20;;;32.20;;
23594;SDS011;11975;47.674;9.472;2022-10-28T08:02:23;31.77;;;29.95;;
23594;SDS011;11975;47.674;9.472;2022-10-28T08:04:50;32.55;;;30.65;;
23594;SDS011;11975;47.674;9.472;2022-10-28T08:07:16;32.95;;;30.88;;
23594;SDS011;11975;47.674;9.472;2022-10-28T08:09:43;31.17;;;29.40;;
23594;SDS011;11975;47.674;9.472;2022-10-28T08:12:11;30.95;;;28.75;;
23594;SDS011;11975;47.674;9.472;2022-10-28T08:14:38;31.05;;;29.15;;
23594;SDS011;11975;47.674;9.472;2022-10-28T08:17:04;35.08;;;32.22;;
23594;SDS011;11975;47.674;9.472;2022-10-28T08:19:30;30.83;;;28.98;;
23594;SDS011;11975;47.674;9.472;2022-10-28T08:21:56;31.05;;;29.25;;
23594;SDS011;11975;47.674;9.472;2022-10-28T08:24:22;31.02;;;29.17;;
23594;SDS011;11975;47.674;9.472;2022-10-28T08:26:48;30.70;;;28.90;;
23594;SDS011;11975;47.674;9.472;2022-10-28T08:29:14;31.02;;;29.23;;
23594;SDS011;11975;47.674;9.472;2022-10-28T08:31:40;30.35;;;28.60;;
23594;SDS011;11975;47.674;9.472;2022-10-28T08:34:06;31.20;;;29.38;;
23594;SDS011;11975;47.674;9.472;2022-10-28T08:36:32;31.40;;;29.58;;
23594;SDS011;11975;47.674;9.472;2022-10-28T08:38:58;31.67;;;29.80;;
23594;SDS011;11975;47.674;9.472;2022-10-28T08:49:49;34.75;;;32.75;;
23594;SDS011;11975;47.674;9.472;2022-10-28T08:52:33;33.95;;;32.03;;
23594;SDS011;11975;47.674;9.472;2022-10-28T08:55:12;35.05;;;33.03;;
23594;SDS011;11975;47.674;9.472;2022-10-28T08:57:42;37.70;;;35.45;;
23594;SDS011;11975;47.674;9.472;2022-10-28T09:00:16;37.25;;;35.08;;
23594;SDS011;11975;47.674;9.472;2022-10-28T09:05:37;37.83;;;35.55;;
23594;SDS011;11975;47.674;9.472;2022-10-28T09:08:04;37.90;;;35.70;;
23594;SDS011;11975;47.674;9.472;2022-10-28T09:13:15;38.83;;;36.42;;
23594;SDS011;11975;47.674;9.472;2022-10-28T09:18:28;38.30;;;36.10;;
23594;SDS011;11975;47.674;9.472;2022-10-28T09:21:00;38.72;;;35.95;;
23594;SDS011;11975;47.674;9.472;2022-10-28T09:23:30;35.72;;;33.63;;
23594;SDS011;11975;47.674;9.472;2022-10-28T09:35:59;36.40;;;34.20;;
23594;SDS011;11975;47.674;9.472;2022-10-28T09:38:27;36.28;;;34.17;;
23594;SDS011;11975;47.674;9.472;2022-10-28T09:40:57;35.65;;;33.42;;
23594;SDS011;11975;47.674;9.472;2022-10-28T09:43:35;35.15;;;33.15;;
23594;SDS011;11975;47.674;9.472;2022-10-28T09:46:07;34.92;;;32.92;;
23594;SDS011;11975;47.674;9.472;2022-10-28T09:48:38;33.40;;;31.50;;
23594;SDS011;11975;47.674;9.472;2022-10-28T09:51:06;33.45;;;31.50;;
23594;SDS011;11975;47.674;9.472;2022-10-28T09:54:00;34.10;;;32.03;;
23594;SDS011;11975;47.674;9.472;2022-10-28T09:56:27;31.33;;;29.52;;
23594;SDS011;11975;47.674;9.472;2022-10-28T10:01:21;34.55;;;32.35;;
23594;SDS011;11975;47.674;9.472;2022-10-28T10:03:47;31.35;;;29.55;;
23594;SDS011;11975;47.674;9.472;2022-10-28T10:08:43;31.98;;;30.17;;
23594;SDS011;11975;47.674;9.472;2022-10-28T10:11:19;30.40;;;28.60;;
23594;SDS011;11975;47.674;9.472;2022-10-28T10:13:45;29.17;;;27.48;;
23594;SDS011;11975;47.674;9.472;2022-10-28T10:16:13;29.02;;;27.33;;
23594;SDS011;11975;47.674;9.472;2022-10-28T10:18:48;28.40;;;26.80;;
23594;SDS011;11975;47.674;9.472;2022-10-28T10:21:16;28.55;;;26.35;;
23594;SDS011;11975;47.674;9.472;2022-10-28T10:23:44;28.83;;;27.08;;
23594;SDS011;11975;47.674;9.472;2022-10-28T10:26:11;28.35;;;26.48;;
23594;SDS011;11975;47.674;9.472;2022-10-28T10:28:45;29.23;;;27.50;;
23594;SDS011;11975;47.674;9.472;2022-10-28T10:31:17;27.77;;;26.08;;
23594;SDS011;11975;47.674;9.472;2022-10-28T10:33:55;27.02;;;25.42;;
23594;SDS011;11975;47.674;9.472;2022-10-28T10:36:25;26.27;;;24.77;;
23594;SDS011;11975;47.674;9.472;2022-10-28T10:38:56;27.90;;;26.10;;
23594;SDS011;11975;47.674;9.472;2022-10-28T10:49:26;25.55;;;24.08;;
23594;SDS011;11975;47.674;9.472;2022-10-28T10:51:56;25.80;;;24.30;;
23594;SDS011;11975;47.674;9.472;2022-10-28T10:54:23;24.80;;;23.33;;
23594;SDS011;11975;47.674;9.472;2022-10-28T10:56:51;24.73;;;23.25;;
23594;SDS011;11975;47.674;9.472;2022-10-28T11:01:55;24.42;;;22.92;;
23594;SDS011;11975;47.674;9.472;2022-10-28T11:04:22;25.83;;;23.55;;
23594;SDS011;11975;47.674;9.472;2022-10-28T11:06:51;23.17;;;21.88;;
23594;SDS011;11975;47.674;9.472;2022-10-28T11:09:30;25.50;;;23.55;;
23594;SDS011;11975;47.674;9.472;2022-10-28T11:11:59;24.52;;;23.02;;
23594;SDS011;11975;47.674;9.472;2022-10-28T11:14:27;24.98;;;23.58;;
23594;SDS011;11975;47.674;9.472;2022-10-28T11:16:56;23.90;;;22.52;;
23594;SDS011;11975;47.674;9.472;2022-10-28T11:19:44;25.48;;;23.98;;
23594;SDS011;11975;47.674;9.472;2022-10-28T11:22:11;23.80;;;22.40;;
23594;SDS011;11975;47.674;9.472;2022-10-28T11:30:04;23.02;;;21.73;;
23594;SDS011;11975;47.674;9.472;2022-10-28T11:48:58;21.83;;;20.48;;
23594;SDS011;11975;47.674;9.472;2022-10-28T11:51:37;20.55;;;19.45;;
23594;SDS011;11975;47.674;9.472;2022-10-28T11:56:53;21.35;;;20.05;;
23594;SDS011;11975;47.674;9.472;2022-10-28T12:02:34;21.27;;;20.02;;
23594;SDS011;11975;47.674;9.472;2022-10-28T12:05:19;21.60;;;20.33;;
23594;SDS011;11975;47.674;9.472;2022-10-28T12:08:01;21.23;;;20.02;;
23594;SDS011;11975;47.674;9.472;2022-10-28T12:13:27;21.17;;;19.88;;
23594;SDS011;11975;47.674;9.472;2022-10-28T12:18:52;20.52;;;19.33;;
23594;SDS011;11975;47.674;9.472;2022-10-28T12:21:36;21.55;;;20.15;;
23594;SDS011;11975;47.674;9.472;2022-10-28T12:24:05;20.20;;;19.10;;
23594;SDS011;11975;47.674;9.472;2022-10-28T12:26:39;20.60;;;19.40;;
23594;SDS011;11975;47.674;9.472;2022-10-28T12:29:14;19.52;;;18.42;;
23594;SDS011;11975;47.674;9.472;2022-10-28T12:31:47;19.95;;;18.85;;
23594;SDS011;11975;47.674;9.472;2022-10-28T12:34:19;19.55;;;18.45;;
23594;SDS011;11975;47.674;9.472;2022-10-28T12:36:57;20.88;;;19.67;;
23594;SDS011;11975;47.674;9.472;2022-10-28T12:39:27;23.08;;;21.58;;
23594;SDS011;11975;47.674;9.472;2022-10-28T12:42:09;22.50;;;21.13;;
23594;SDS011;11975;47.674;9.472;2022-10-28T12:44:39;21.65;;;20.45;;
23594;SDS011;11975;47.674;9.472;2022-10-28T12:57:42;21.10;;;19.77;;
23594;SDS011;11975;47.674;9.472;2022-10-28T13:00:27;20.88;;;19.65;;
23594;SDS011;11975;47.674;9.472;2022-10-28T13:05:33;21.70;;;20.35;;
23594;SDS011;11975;47.674;9.472;2022-10-28T13:19:27;19.85;;;18.73;;
23594;SDS011;11975;47.674;9.472;2022-10-28T13:22:16;21.63;;;20.17;;
23594;SDS011;11975;47.674;9.472;2022-10-28T13:27:56;21.30;;;20.00;;
23594;SDS011;11975;47.674;9.472;2022-10-28T13:30:23;20.70;;;19.30;;
23594;SDS011;11975;47.674;9.472;2022-10-28T13:32:51;20.60;;;19.40;;
23594;SDS011;11975;47.674;9.472;2022-10-28T13:35:26;20.70;;;19.50;;
23594;SDS011;11975;47.674;9.472;2022-10-28T13:37:52;20.75;;;19.55;;
23594;SDS011;11975;47.674;9.472;2022-10-28T13:40:20;20.60;;;19.40;;
23594;SDS011;11975;47.674;9.472;2022-10-28T13:42:54;21.25;;;19.77;;
23594;SDS011;11975;47.674;9.472;2022-10-28T13:56:20;20.33;;;19.13;;
23594;SDS011;11975;47.674;9.472;2022-10-28T13:58:56;20.08;;;18.42;;
23594;SDS011;11975;47.674;9.472;2022-10-28T14:09:31;20.35;;;19.17;;
23594;SDS011;11975;47.674;9.472;2022-10-28T14:12:41;21.50;;;20.20;;
23594;SDS011;11975;47.674;9.472;2022-10-28T14:14:56;21.27;;;19.75;;
23594;SDS011;11975;47.674;9.472;2022-10-28T14:17:47;21.92;;;20.52;;
23594;SDS011;11975;47.674;9.472;2022-10-28T14:20:20;21.77;;;20.35;;
23594;SDS011;11975;47.674;9.472;2022-10-28T14:22:52;20.40;;;19.20;;
23594;SDS011;11975;47.674;9.472;2022-10-28T14:33:50;20.15;;;18.95;;
23594;SDS011;11975;47.674;9.472;2022-10-28T14:39:17;20.38;;;19.17;;
23594;SDS011;11975;47.674;9.472;2022-10-28T14:42:12;20.80;;;19.60;;
23594;SDS011;11975;47.674;9.472;2022-10-28T14:45:20;20.90;;;19.60;;
23594;SDS011;11975;47.674;9.472;2022-10-28T14:50:46;21.38;;;20.08;;
23594;SDS011;11975;47.674;9.472;2022-10-28T14:53:19;21.48;;;20.17;;
23594;SDS011;11975;47.674;9.472;2022-10-28T14:55:51;20.92;;;19.73;;
23594;SDS011;11975;47.674;9.472;2022-10-28T14:58:30;21.52;;;20.33;;
23594;SDS011;11975;47.674;9.472;2022-10-28T15:03:41;23.38;;;21.88;;
23594;SDS011;11975;47.674;9.472;2022-10-28T15:06:23;21.17;;;19.98;;
23594;SDS011;11975;47.674;9.472;2022-10-28T15:08:55;22.98;;;20.90;;
23594;SDS011;11975;47.674;9.472;2022-10-28T15:11:22;21.77;;;20.48;;
23594;SDS011;11975;47.674;9.472;2022-10-28T15:13:50;21.38;;;20.17;;
23594;SDS011;11975;47.674;9.472;2022-10-28T15:16:23;20.70;;;19.50;;
23594;SDS011;11975;47.674;9.472;2022-10-28T15:18:51;21.60;;;20.38;;
23594;SDS011;11975;47.674;9.472;2022-10-28T15:21:18;21.38;;;20.17;;
23594;SDS011;11975;47.674;9.472;2022-10-28T15:23:59;22.15;;;20.83;;
23594;SDS011;11975;47.674;9.472;2022-10-28T15:26:25;22.58;;;21.23;;
23594;SDS011;11975;47.674;9.472;2022-10-28T15:28:51;20.98;;;19.77;;
23594;SDS011;11975;47.674;9.472;2022-10-28T15:31:17;20.48;;;19.27;;
23594;SDS011;11975;47.674;9.472;2022-10-28T15:33:43;22.27;;;20.65;;
23594;SDS011;11975;47.674;9.472;2022-10-28T15:36:14;21.45;;;20.20;;
23594;SDS011;11975;47.674;9.472;2022-10-28T15:38:50;22.05;;;20.73;;
23594;SDS011;11975;47.674;9.472;2022-10-28T15:41:39;22.80;;;21.30;;
23594;SDS011;11975;47.674;9.472;2022-10-28T15:44:07;21.70;;;20.48;;
23594;SDS011;11975;47.674;9.472;2022-10-28T15:46:48;22.48;;;21.17;;
23594;SDS011;11975;47.674;9.472;2022-10-28T15:49:34;22.75;;;21.45;;
23594;SDS011;11975;47.674;9.472;2022-10-28T15:54:55;21.77;;;20.58;;
23594;SDS011;11975;47.674;9.472;2022-10-28T15:57:23;24.13;;;22.40;;
23594;SDS011;11975;47.674;9.472;2022-10-28T16:02:55;23.52;;;22.15;;
23594;SDS011;11975;47.674;9.472;2022-10-28T16:08:03;22.73;;;21.42;;
23594;SDS011;11975;47.674;9.472;2022-10-28T16:10:35;23.02;;;21.73;;
23594;SDS011;11975;47.674;9.472;2022-10-28T16:13:12;22.80;;;21.50;;
23594;SDS011;11975;47.674;9.472;2022-10-28T16:15:48;24.25;;;22.83;;
23594;SDS011;11975;47.674;9.472;2022-10-28T16:18:20;24.63;;;23.17;;
23594;SDS011;11975;47.674;9.472;2022-10-28T16:20:46;24.92;;;23.50;;
23594;SDS011;11975;47.674;9.472;2022-10-28T16:23:19;25.70;;;24.23;;
23594;SDS011;11975;47.674;9.472;2022-10-28T16:25:47;26.35;;;24.85;;
23594;SDS011;11975;47.674;9.472;2022-10-28T16:28:19;26.30;;;24.80;;
23594;SDS011;11975;47.674;9.472;2022-10-28T16:30:46;27.13;;;25.52;;
23594;SDS011;11975;47.674;9.472;2022-10-28T16:33:14;28.88;;;27.13;;
23594;SDS011;11975;47.674;9.472;2022-10-28T16:35:40;28.88;;;27.23;;
23594;SDS011;11975;47.674;9.472;2022-10-28T16:38:12;28.13;;;26.52;;
23594;SDS011;11975;47.674;9.472;2022-10-28T16:40:39;30.00;;;28.30;;
23594;SDS011;11975;47.674;9.472;2022-10-28T16:43:05;29.73;;;28.02;;
23594;SDS011;11975;47.674;9.472;2022-10-28T16:45:33;29.70;;;27.95;;
23594;SDS011;11975;47.674;9.472;2022-10-28T16:47:59;27.63;;;26.02;;
23594;SDS011;11975;47.674;9.472;2022-10-28T16:50:25;31.38;;;29.33;;
23594;SDS011;11975;47.674;9.472;2022-10-28T16:52:51;29.27;;;27.58;;
23594;SDS011;11975;47.674;9.472;2022-10-28T16:55:18;30.15;;;28.45;;
23594;SDS011;11975;47.674;9.472;2022-10-28T16:57:44;31.02;;;29.17;;
23594;SDS011;11975;47.674;9.472;2022-10-28T17:00:13;31.73;;;29.83;;
23594;SDS011;11975;47.674;9.472;2022-10-28T17:02:39;31.85;;;29.35;;
23594;SDS011;11975;47.674;9.472;2022-10-28T17:05:08;30.30;;;28.58;;
23594;SDS011;11975;47.674;9.472;2022-10-28T17:07:43;30.58;;;28.80;;
23594;SDS011;11975;47.674;9.472;2022-10-28T17:10:10;31.77;;;29.70;;
23594;SDS011;11975;47.674;9.472;2022-10-28T17:15:02;31.85;;;30.05;;
23594;SDS011;11975;47.674;9.472;2022-10-28T17:17:28;37.85;;;34.67;;
23594;SDS011;11975;47.674;9.472;2022-10-28T17:19:54;33.05;;;30.77;;
23594;SDS011;11975;47.674;9.472;2022-10-28T17:22:20;29.45;;;27.65;;
23594;SDS011;11975;47.674;9.472;2022-10-28T17:24:46;31.80;;;29.90;;
23594;SDS011;11975;47.674;9.472;2022-10-28T17:27:12;29.85;;;28.15;;
23594;SDS011;11975;47.674;9.472;2022-10-28T17:29:38;31.80;;;29.92;;
23594;SDS011;11975;47.674;9.472;2022-10-28T17:32:04;30.13;;;28.20;;
23594;SDS011;11975;47.674;9.472;2022-10-28T17:34:33;30.38;;;28.67;;
23594;SDS011;11975;47.674;9.472;2022-10-28T17:36:59;32.65;;;30.67;;
23594;SDS011;11975;47.674;9.472;2022-10-28T17:39:25;31.67;;;29.45;;